Terminal Aerodrome Forecast
Issued by NWS

Home | Current Version | Previous Version | Text Only | Print | Product List | Glossary On
Versions: 1 2 3 4 5 6 7 8 9 10 11 12 13 14 15 16
000
FTUS45 KRIW 301132
TAFCPR
TAF
KCPR 301132Z 3012/0112 25007KT P6SM FEW120 BKN250
     FM301700 26011KT P6SM SCT110
     FM302000 33013G22KT P6SM VCTS SCT080CB BKN100
     FM010500 30010KT P6SM BKN100=

USA.gov is the U.S. government's official web portal to all federal, state and local government web resources and services.